sensor_id;sensor_type;location;lat;lon;timestamp;temperature;humidity
16384;DHT22;8301;51.440;6.610;2024-02-26T00:01:07;6.40;99.90
16384;DHT22;8301;51.440;6.610;2024-02-26T00:03:35;6.30;99.90
16384;DHT22;8301;51.440;6.610;2024-02-26T00:06:03;6.30;99.90
16384;DHT22;8301;51.440;6.610;2024-02-26T00:08:30;6.30;99.90
16384;DHT22;8301;51.440;6.610;2024-02-26T00:10:57;6.30;99.90
16384;DHT22;8301;51.440;6.610;2024-02-26T00:13:24;6.30;99.90
16384;DHT22;8301;51.440;6.610;2024-02-26T00:15:52;6.20;99.90
16384;DHT22;8301;51.440;6.610;2024-02-26T00:18:25;6.20;99.90
16384;DHT22;8301;51.440;6.610;2024-02-26T00:20:51;6.20;99.90
16384;DHT22;8301;51.440;6.610;2024-02-26T00:23:18;6.20;1.00
16384;DHT22;8301;51.440;6.610;2024-02-26T00:25:45;6.20;1.00
16384;DHT22;8301;51.440;6.610;2024-02-26T00:28:12;6.20;1.00
16384;DHT22;8301;51.440;6.610;2024-02-26T00:30:39;6.20;99.90
16384;DHT22;8301;51.440;6.610;2024-02-26T00:33:06;6.20;1.00
16384;DHT22;8301;51.440;6.610;2024-02-26T00:35:33;6.20;99.90
16384;DHT22;8301;51.440;6.610;2024-02-26T00:38:00;6.20;99.90
16384;DHT22;8301;51.440;6.610;2024-02-26T00:40:27;6.20;99.90
16384;DHT22;8301;51.440;6.610;2024-02-26T00:42:54;6.20;99.90
16384;DHT22;8301;51.440;6.610;2024-02-26T00:45:21;6.20;99.90
16384;DHT22;8301;51.440;6.610;2024-02-26T00:47:48;6.10;99.90
16384;DHT22;8301;51.440;6.610;2024-02-26T00:50:15;6.10;99.90
16384;DHT22;8301;51.440;6.610;2024-02-26T00:52:42;6.10;99.90
16384;DHT22;8301;51.440;6.610;2024-02-26T00:55:09;6.20;99.90
16384;DHT22;8301;51.440;6.610;2024-02-26T00:57:36;6.10;99.90
16384;DHT22;8301;51.440;6.610;2024-02-26T01:00:03;6.10;1.00
16384;DHT22;8301;51.440;6.610;2024-02-26T01:02:30;6.10;1.00
16384;DHT22;8301;51.440;6.610;2024-02-26T01:04:57;6.10;1.00
16384;DHT22;8301;51.440;6.610;2024-02-26T01:07:23;6.10;1.00
16384;DHT22;8301;51.440;6.610;2024-02-26T01:09:50;6.10;1.00
16384;DHT22;8301;51.440;6.610;2024-02-26T01:12:17;6.10;1.00
16384;DHT22;8301;51.440;6.610;2024-02-26T01:14:44;6.10;99.90
16384;DHT22;8301;51.440;6.610;2024-02-26T01:17:11;6.10;99.90
16384;DHT22;8301;51.440;6.610;2024-02-26T01:19:37;6.20;99.90
16384;DHT22;8301;51.440;6.610;2024-02-26T01:22:04;6.20;1.00
16384;DHT22;8301;51.440;6.610;2024-02-26T01:24:31;6.20;99.90
16384;DHT22;8301;51.440;6.610;2024-02-26T01:26:58;6.20;99.90
16384;DHT22;8301;51.440;6.610;2024-02-26T01:29:24;6.20;99.90
16384;DHT22;8301;51.440;6.610;2024-02-26T01:31:51;6.20;99.90
16384;DHT22;8301;51.440;6.610;2024-02-26T01:34:18;6.20;99.90
16384;DHT22;8301;51.440;6.610;2024-02-26T01:36:45;6.20;99.90
16384;DHT22;8301;51.440;6.610;2024-02-26T01:39:12;6.20;99.90
16384;DHT22;8301;51.440;6.610;2024-02-26T01:41:39;6.20;99.90
16384;DHT22;8301;51.440;6.610;2024-02-26T01:44:06;6.20;99.90
16384;DHT22;8301;51.440;6.610;2024-02-26T01:46:34;6.20;99.90
16384;DHT22;8301;51.440;6.610;2024-02-26T01:49:02;6.20;99.90
16384;DHT22;8301;51.440;6.610;2024-02-26T01:51:29;6.20;99.90
16384;DHT22;8301;51.440;6.610;2024-02-26T01:53:57;6.10;99.90
16384;DHT22;8301;51.440;6.610;2024-02-26T01:56:25;6.20;99.90
16384;DHT22;8301;51.440;6.610;2024-02-26T01:58:54;6.10;99.90
16384;DHT22;8301;51.440;6.610;2024-02-26T02:01:21;6.20;99.90
16384;DHT22;8301;51.440;6.610;2024-02-26T02:03:50;6.10;99.90
16384;DHT22;8301;51.440;6.610;2024-02-26T02:06:16;6.10;99.90
16384;DHT22;8301;51.440;6.610;2024-02-26T02:08:43;6.10;99.90
16384;DHT22;8301;51.440;6.610;2024-02-26T02:11:10;6.10;99.90
16384;DHT22;8301;51.440;6.610;2024-02-26T02:13:40;6.20;99.90
16384;DHT22;8301;51.440;6.610;2024-02-26T02:16:07;6.20;99.90
16384;DHT22;8301;51.440;6.610;2024-02-26T02:18:34;6.20;99.90
16384;DHT22;8301;51.440;6.610;2024-02-26T02:21:01;6.10;99.90
16384;DHT22;8301;51.440;6.610;2024-02-26T02:23:28;6.10;99.90
16384;DHT22;8301;51.440;6.610;2024-02-26T02:25:55;6.10;99.90
16384;DHT22;8301;51.440;6.610;2024-02-26T02:28:23;6.10;99.90
16384;DHT22;8301;51.440;6.610;2024-02-26T02:30:51;6.10;99.90
16384;DHT22;8301;51.440;6.610;2024-02-26T02:33:18;6.10;99.90
16384;DHT22;8301;51.440;6.610;2024-02-26T02:35:46;6.10;99.90
16384;DHT22;8301;51.440;6.610;2024-02-26T02:38:12;6.10;99.90
16384;DHT22;8301;51.440;6.610;2024-02-26T02:40:39;6.10;99.90
16384;DHT22;8301;51.440;6.610;2024-02-26T02:43:06;6.10;99.90
16384;DHT22;8301;51.440;6.610;2024-02-26T02:45:33;6.10;99.90
16384;DHT22;8301;51.440;6.610;2024-02-26T02:48:00;6.10;99.90
16384;DHT22;8301;51.440;6.610;2024-02-26T02:50:26;6.10;99.90
16384;DHT22;8301;51.440;6.610;2024-02-26T02:52:54;6.00;99.90
16384;DHT22;8301;51.440;6.610;2024-02-26T02:55:21;6.00;99.90
16384;DHT22;8301;51.440;6.610;2024-02-26T02:57:48;6.00;99.90
16384;DHT22;8301;51.440;6.610;2024-02-26T03:00:15;6.00;99.90
16384;DHT22;8301;51.440;6.610;2024-02-26T03:02:42;5.90;99.90
16384;DHT22;8301;51.440;6.610;2024-02-26T03:05:10;5.90;1.00
16384;DHT22;8301;51.440;6.610;2024-02-26T03:07:37;5.90;1.00
16384;DHT22;8301;51.440;6.610;2024-02-26T03:10:06;5.90;1.00
16384;DHT22;8301;51.440;6.610;2024-02-26T03:12:33;5.90;1.00
16384;DHT22;8301;51.440;6.610;2024-02-26T03:15:00;5.90;1.00
16384;DHT22;8301;51.440;6.610;2024-02-26T03:17:30;5.90;1.00
16384;DHT22;8301;51.440;6.610;2024-02-26T03:19:57;5.80;1.00
16384;DHT22;8301;51.440;6.610;2024-02-26T03:22:23;5.80;1.00
16384;DHT22;8301;51.440;6.610;2024-02-26T03:24:50;5.80;1.00
16384;DHT22;8301;51.440;6.610;2024-02-26T03:27:17;5.80;1.00
16384;DHT22;8301;51.440;6.610;2024-02-26T03:29:44;5.80;1.00
16384;DHT22;8301;51.440;6.610;2024-02-26T03:32:11;5.80;1.00
16384;DHT22;8301;51.440;6.610;2024-02-26T03:34:38;5.70;1.00
16384;DHT22;8301;51.440;6.610;2024-02-26T03:37:06;5.60;90.90
16384;DHT22;8301;51.440;6.610;2024-02-26T03:39:35;5.60;99.90
16384;DHT22;8301;51.440;6.610;2024-02-26T03:42:02;5.50;99.90
16384;DHT22;8301;51.440;6.610;2024-02-26T03:44:28;5.40;1.00
16384;DHT22;8301;51.440;6.610;2024-02-26T03:46:55;5.40;1.00
16384;DHT22;8301;51.440;6.610;2024-02-26T03:49:22;5.40;1.00
16384;DHT22;8301;51.440;6.610;2024-02-26T03:51:49;5.40;1.00
16384;DHT22;8301;51.440;6.610;2024-02-26T03:54:16;5.40;1.00
16384;DHT22;8301;51.440;6.610;2024-02-26T03:56:42;5.30;1.00
16384;DHT22;8301;51.440;6.610;2024-02-26T03:59:09;5.30;1.00
16384;DHT22;8301;51.440;6.610;2024-02-26T04:01:36;5.30;1.00
16384;DHT22;8301;51.440;6.610;2024-02-26T04:04:03;5.30;1.00
16384;DHT22;8301;51.440;6.610;2024-02-26T04:06:30;5.30;1.00
16384;DHT22;8301;51.440;6.610;2024-02-26T04:08:59;5.30;1.00
16384;DHT22;8301;51.440;6.610;2024-02-26T04:11:28;5.30;1.00
16384;DHT22;8301;51.440;6.610;2024-02-26T04:13:55;5.30;1.00
16384;DHT22;8301;51.440;6.610;2024-02-26T04:16:22;5.30;1.00
16384;DHT22;8301;51.440;6.610;2024-02-26T04:18:49;5.30;1.00
16384;DHT22;8301;51.440;6.610;2024-02-26T04:21:16;5.30;1.00
16384;DHT22;8301;51.440;6.610;2024-02-26T04:23:43;5.30;1.00
16384;DHT22;8301;51.440;6.610;2024-02-26T04:26:09;5.20;1.00
16384;DHT22;8301;51.440;6.610;2024-02-26T04:28:36;5.20;1.00
16384;DHT22;8301;51.440;6.610;2024-02-26T04:31:03;5.20;1.00
16384;DHT22;8301;51.440;6.610;2024-02-26T04:33:33;5.30;1.00
16384;DHT22;8301;51.440;6.610;2024-02-26T04:35:59;5.30;1.00
16384;DHT22;8301;51.440;6.610;2024-02-26T04:38:25;5.30;1.00
16384;DHT22;8301;51.440;6.610;2024-02-26T04:40:52;5.30;1.00
16384;DHT22;8301;51.440;6.610;2024-02-26T04:43:19;5.30;1.00
16384;DHT22;8301;51.440;6.610;2024-02-26T04:45:46;5.30;1.00
16384;DHT22;8301;51.440;6.610;2024-02-26T04:48:13;5.20;1.00
16384;DHT22;8301;51.440;6.610;2024-02-26T04:50:40;5.30;1.00
16384;DHT22;8301;51.440;6.610;2024-02-26T04:53:07;5.20;1.00
16384;DHT22;8301;51.440;6.610;2024-02-26T04:55:34;5.20;1.00
16384;DHT22;8301;51.440;6.610;2024-02-26T04:58:00;5.20;1.00
16384;DHT22;8301;51.440;6.610;2024-02-26T05:00:27;5.20;1.00
16384;DHT22;8301;51.440;6.610;2024-02-26T05:02:54;5.20;77.10
16384;DHT22;8301;51.440;6.610;2024-02-26T05:05:21;5.20;99.90
16384;DHT22;8301;51.440;6.610;2024-02-26T05:07:48;5.10;1.00
16384;DHT22;8301;51.440;6.610;2024-02-26T05:10:14;5.10;1.00
16384;DHT22;8301;51.440;6.610;2024-02-26T05:12:41;5.00;1.00
16384;DHT22;8301;51.440;6.610;2024-02-26T05:15:09;5.00;99.90
16384;DHT22;8301;51.440;6.610;2024-02-26T05:17:36;5.00;1.00
16384;DHT22;8301;51.440;6.610;2024-02-26T05:20:02;4.90;1.00
16384;DHT22;8301;51.440;6.610;2024-02-26T05:22:29;4.90;1.00
16384;DHT22;8301;51.440;6.610;2024-02-26T05:24:56;4.90;99.90
16384;DHT22;8301;51.440;6.610;2024-02-26T05:27:23;4.90;99.90
16384;DHT22;8301;51.440;6.610;2024-02-26T05:29:50;4.80;99.90
16384;DHT22;8301;51.440;6.610;2024-02-26T05:32:17;4.80;99.90
16384;DHT22;8301;51.440;6.610;2024-02-26T05:34:44;4.80;99.90
16384;DHT22;8301;51.440;6.610;2024-02-26T05:37:11;4.80;99.90
16384;DHT22;8301;51.440;6.610;2024-02-26T05:39:38;4.80;99.90
16384;DHT22;8301;51.440;6.610;2024-02-26T05:42:05;4.80;99.90
16384;DHT22;8301;51.440;6.610;2024-02-26T05:44:31;4.80;99.90
16384;DHT22;8301;51.440;6.610;2024-02-26T05:46:58;4.80;99.90
16384;DHT22;8301;51.440;6.610;2024-02-26T05:49:25;4.80;99.90
16384;DHT22;8301;51.440;6.610;2024-02-26T05:51:52;4.80;99.90
16384;DHT22;8301;51.440;6.610;2024-02-26T05:54:19;4.80;99.90
16384;DHT22;8301;51.440;6.610;2024-02-26T05:56:45;4.80;99.90
16384;DHT22;8301;51.440;6.610;2024-02-26T05:59:12;4.80;99.90
16384;DHT22;8301;51.440;6.610;2024-02-26T06:01:42;4.80;99.90
16384;DHT22;8301;51.440;6.610;2024-02-26T06:04:09;4.80;99.90
16384;DHT22;8301;51.440;6.610;2024-02-26T06:06:35;4.70;99.90
16384;DHT22;8301;51.440;6.610;2024-02-26T06:09:02;4.70;99.90
16384;DHT22;8301;51.440;6.610;2024-02-26T06:11:31;4.70;99.90
16384;DHT22;8301;51.440;6.610;2024-02-26T06:13:57;4.70;99.90
16384;DHT22;8301;51.440;6.610;2024-02-26T06:16:25;4.70;99.90
16384;DHT22;8301;51.440;6.610;2024-02-26T06:18:52;4.70;99.90
16384;DHT22;8301;51.440;6.610;2024-02-26T06:21:18;4.70;99.90
16384;DHT22;8301;51.440;6.610;2024-02-26T06:23:45;4.70;99.90
16384;DHT22;8301;51.440;6.610;2024-02-26T06:26:12;4.70;99.90
16384;DHT22;8301;51.440;6.610;2024-02-26T06:28:39;4.70;99.90
16384;DHT22;8301;51.440;6.610;2024-02-26T06:31:07;4.70;99.90
16384;DHT22;8301;51.440;6.610;2024-02-26T06:33:34;4.70;99.90
16384;DHT22;8301;51.440;6.610;2024-02-26T06:36:01;4.70;99.90
16384;DHT22;8301;51.440;6.610;2024-02-26T06:38:27;4.70;99.90
16384;DHT22;8301;51.440;6.610;2024-02-26T06:40:54;4.70;99.90
16384;DHT22;8301;51.440;6.610;2024-02-26T06:43:21;4.70;99.90
16384;DHT22;8301;51.440;6.610;2024-02-26T06:45:48;4.70;99.90
16384;DHT22;8301;51.440;6.610;2024-02-26T06:48:15;4.70;99.90
16384;DHT22;8301;51.440;6.610;2024-02-26T06:50:41;4.70;99.90
16384;DHT22;8301;51.440;6.610;2024-02-26T06:53:08;4.70;99.90
16384;DHT22;8301;51.440;6.610;2024-02-26T06:55:35;4.70;99.90
16384;DHT22;8301;51.440;6.610;2024-02-26T06:58:03;4.80;99.90
16384;DHT22;8301;51.440;6.610;2024-02-26T07:00:30;4.80;99.90
16384;DHT22;8301;51.440;6.610;2024-02-26T07:02:57;4.80;99.90
16384;DHT22;8301;51.440;6.610;2024-02-26T07:05:24;4.80;99.90
16384;DHT22;8301;51.440;6.610;2024-02-26T07:07:51;4.80;99.90
16384;DHT22;8301;51.440;6.610;2024-02-26T07:10:18;4.80;99.90
16384;DHT22;8301;51.440;6.610;2024-02-26T07:12:44;4.80;99.90
16384;DHT22;8301;51.440;6.610;2024-02-26T07:15:11;4.80;99.90
16384;DHT22;8301;51.440;6.610;2024-02-26T07:17:38;4.90;99.90
16384;DHT22;8301;51.440;6.610;2024-02-26T07:20:07;4.90;99.90
16384;DHT22;8301;51.440;6.610;2024-02-26T07:22:34;4.90;99.90
16384;DHT22;8301;51.440;6.610;2024-02-26T07:25:00;4.90;99.90
16384;DHT22;8301;51.440;6.610;2024-02-26T07:27:27;4.90;99.90
16384;DHT22;8301;51.440;6.610;2024-02-26T07:29:54;4.90;99.90
16384;DHT22;8301;51.440;6.610;2024-02-26T07:32:22;4.90;99.90
16384;DHT22;8301;51.440;6.610;2024-02-26T07:34:49;4.90;99.90
16384;DHT22;8301;51.440;6.610;2024-02-26T07:37:15;4.90;99.90
16384;DHT22;8301;51.440;6.610;2024-02-26T07:39:42;4.90;99.90
16384;DHT22;8301;51.440;6.610;2024-02-26T07:42:09;4.90;99.90
16384;DHT22;8301;51.440;6.610;2024-02-26T07:44:36;4.90;99.90
16384;DHT22;8301;51.440;6.610;2024-02-26T07:47:03;4.90;99.90
16384;DHT22;8301;51.440;6.610;2024-02-26T07:49:29;4.90;99.90
16384;DHT22;8301;51.440;6.610;2024-02-26T07:51:56;4.90;99.90
16384;DHT22;8301;51.440;6.610;2024-02-26T07:54:24;4.90;99.90
16384;DHT22;8301;51.440;6.610;2024-02-26T07:56:51;4.90;99.90
16384;DHT22;8301;51.440;6.610;2024-02-26T07:59:18;4.90;99.90
16384;DHT22;8301;51.440;6.610;2024-02-26T08:01:48;4.90;99.90
16384;DHT22;8301;51.440;6.610;2024-02-26T08:04:13;4.90;99.90
16384;DHT22;8301;51.440;6.610;2024-02-26T08:06:40;4.90;99.90
16384;DHT22;8301;51.440;6.610;2024-02-26T08:09:07;4.90;99.90
16384;DHT22;8301;51.440;6.610;2024-02-26T08:11:33;4.90;99.90
16384;DHT22;8301;51.440;6.610;2024-02-26T08:14:00;4.90;99.90
16384;DHT22;8301;51.440;6.610;2024-02-26T08:16:27;4.90;99.90
16384;DHT22;8301;51.440;6.610;2024-02-26T08:18:54;4.90;99.90
16384;DHT22;8301;51.440;6.610;2024-02-26T08:21:21;4.90;99.90
16384;DHT22;8301;51.440;6.610;2024-02-26T08:23:48;4.90;99.90
16384;DHT22;8301;51.440;6.610;2024-02-26T08:26:15;4.90;99.90
16384;DHT22;8301;51.440;6.610;2024-02-26T08:28:41;5.00;99.90
16384;DHT22;8301;51.440;6.610;2024-02-26T08:31:08;5.00;99.90
16384;DHT22;8301;51.440;6.610;2024-02-26T08:33:35;5.00;99.90
16384;DHT22;8301;51.440;6.610;2024-02-26T08:36:06;5.00;99.90
16384;DHT22;8301;51.440;6.610;2024-02-26T08:38:33;5.00;99.90
16384;DHT22;8301;51.440;6.610;2024-02-26T08:41:01;5.00;99.90
16384;DHT22;8301;51.440;6.610;2024-02-26T08:43:30;5.00;99.90
16384;DHT22;8301;51.440;6.610;2024-02-26T08:45:57;5.00;99.90
16384;DHT22;8301;51.440;6.610;2024-02-26T08:48:24;5.00;99.90
16384;DHT22;8301;51.440;6.610;2024-02-26T08:50:50;5.00;99.90
16384;DHT22;8301;51.440;6.610;2024-02-26T08:53:17;5.00;99.90
16384;DHT22;8301;51.440;6.610;2024-02-26T08:55:44;5.00;99.90
16384;DHT22;8301;51.440;6.610;2024-02-26T08:58:11;5.00;99.90
16384;DHT22;8301;51.440;6.610;2024-02-26T09:00:38;5.00;99.90
16384;DHT22;8301;51.440;6.610;2024-02-26T09:03:04;5.00;99.90
16384;DHT22;8301;51.440;6.610;2024-02-26T09:05:31;5.00;99.90
16384;DHT22;8301;51.440;6.610;2024-02-26T09:07:58;5.00;99.90
16384;DHT22;8301;51.440;6.610;2024-02-26T09:10:25;5.00;99.90
16384;DHT22;8301;51.440;6.610;2024-02-26T09:12:52;5.00;99.90
16384;DHT22;8301;51.440;6.610;2024-02-26T09:15:19;5.00;99.90
16384;DHT22;8301;51.440;6.610;2024-02-26T09:17:45;5.00;99.90
16384;DHT22;8301;51.440;6.610;2024-02-26T09:20:14;5.10;99.90
16384;DHT22;8301;51.440;6.610;2024-02-26T09:22:41;5.00;99.90
16384;DHT22;8301;51.440;6.610;2024-02-26T09:25:08;5.00;99.90
16384;DHT22;8301;51.440;6.610;2024-02-26T09:27:35;5.10;99.90
16384;DHT22;8301;51.440;6.610;2024-02-26T09:30:02;5.00;99.90
16384;DHT22;8301;51.440;6.610;2024-02-26T09:32:30;5.10;99.90
16384;DHT22;8301;51.440;6.610;2024-02-26T09:34:57;5.00;99.90
16384;DHT22;8301;51.440;6.610;2024-02-26T09:37:23;5.10;99.90
16384;DHT22;8301;51.440;6.610;2024-02-26T09:39:50;5.00;99.90
16384;DHT22;8301;51.440;6.610;2024-02-26T09:42:18;5.00;99.90
16384;DHT22;8301;51.440;6.610;2024-02-26T09:44:45;5.00;99.90
16384;DHT22;8301;51.440;6.610;2024-02-26T09:47:12;5.00;99.90
16384;DHT22;8301;51.440;6.610;2024-02-26T09:49:41;5.00;99.90
16384;DHT22;8301;51.440;6.610;2024-02-26T09:52:09;5.00;99.90
16384;DHT22;8301;51.440;6.610;2024-02-26T09:54:36;5.00;99.90
16384;DHT22;8301;51.440;6.610;2024-02-26T09:57:02;5.00;99.90
16384;DHT22;8301;51.440;6.610;2024-02-26T09:59:36;5.00;99.90
16384;DHT22;8301;51.440;6.610;2024-02-26T10:02:02;5.00;99.90
16384;DHT22;8301;51.440;6.610;2024-02-26T10:04:30;5.00;99.90
16384;DHT22;8301;51.440;6.610;2024-02-26T10:06:57;5.00;99.90
16384;DHT22;8301;51.440;6.610;2024-02-26T10:09:25;5.00;99.90
16384;DHT22;8301;51.440;6.610;2024-02-26T10:11:52;5.10;99.90
16384;DHT22;8301;51.440;6.610;2024-02-26T10:14:19;5.10;99.90
16384;DHT22;8301;51.440;6.610;2024-02-26T10:16:47;5.10;99.90
16384;DHT22;8301;51.440;6.610;2024-02-26T10:19:30;5.10;99.90
16384;DHT22;8301;51.440;6.610;2024-02-26T10:21:57;5.10;99.90
16384;DHT22;8301;51.440;6.610;2024-02-26T10:24:24;5.10;99.90
16384;DHT22;8301;51.440;6.610;2024-02-26T10:26:54;5.10;99.90
16384;DHT22;8301;51.440;6.610;2024-02-26T10:29:21;5.10;99.90
16384;DHT22;8301;51.440;6.610;2024-02-26T10:31:48;5.10;99.90
16384;DHT22;8301;51.440;6.610;2024-02-26T10:34:17;5.10;99.90
16384;DHT22;8301;51.440;6.610;2024-02-26T10:36:44;5.20;99.90
16384;DHT22;8301;51.440;6.610;2024-02-26T10:39:12;5.20;99.90
16384;DHT22;8301;51.440;6.610;2024-02-26T10:41:42;5.20;99.90
16384;DHT22;8301;51.440;6.610;2024-02-26T10:44:09;5.30;99.90
16384;DHT22;8301;51.440;6.610;2024-02-26T10:46:37;5.30;99.90
16384;DHT22;8301;51.440;6.610;2024-02-26T10:49:04;5.30;99.90
16384;DHT22;8301;51.440;6.610;2024-02-26T10:51:32;5.30;99.90
16384;DHT22;8301;51.440;6.610;2024-02-26T10:54:00;5.30;99.90
16384;DHT22;8301;51.440;6.610;2024-02-26T10:56:30;5.40;99.90
16384;DHT22;8301;51.440;6.610;2024-02-26T10:58:59;5.40;99.90
16384;DHT22;8301;51.440;6.610;2024-02-26T11:01:26;5.40;99.90
16384;DHT22;8301;51.440;6.610;2024-02-26T11:03:55;5.40;99.90
16384;DHT22;8301;51.440;6.610;2024-02-26T11:06:22;5.50;99.90
16384;DHT22;8301;51.440;6.610;2024-02-26T11:08:54;5.50;99.90
16384;DHT22;8301;51.440;6.610;2024-02-26T11:11:17;5.50;99.90
16384;DHT22;8301;51.440;6.610;2024-02-26T11:13:45;5.50;99.90
16384;DHT22;8301;51.440;6.610;2024-02-26T11:16:15;5.50;99.90
16384;DHT22;8301;51.440;6.610;2024-02-26T11:18:43;5.50;99.90
16384;DHT22;8301;51.440;6.610;2024-02-26T11:21:11;5.60;99.90
16384;DHT22;8301;51.440;6.610;2024-02-26T11:23:39;5.60;99.90
16384;DHT22;8301;51.440;6.610;2024-02-26T11:26:06;5.60;99.90
16384;DHT22;8301;51.440;6.610;2024-02-26T11:28:34;5.60;99.90
16384;DHT22;8301;51.440;6.610;2024-02-26T11:31:01;5.60;99.90
16384;DHT22;8301;51.440;6.610;2024-02-26T11:33:30;5.60;99.90
16384;DHT22;8301;51.440;6.610;2024-02-26T11:35:58;5.60;99.90
16384;DHT22;8301;51.440;6.610;2024-02-26T11:38:26;5.60;99.90
16384;DHT22;8301;51.440;6.610;2024-02-26T11:40:53;5.70;99.90
16384;DHT22;8301;51.440;6.610;2024-02-26T11:43:25;5.70;99.90
16384;DHT22;8301;51.440;6.610;2024-02-26T11:45:49;5.80;99.90
16384;DHT22;8301;51.440;6.610;2024-02-26T11:48:24;5.80;99.90
16384;DHT22;8301;51.440;6.610;2024-02-26T11:50:52;5.80;99.90
16384;DHT22;8301;51.440;6.610;2024-02-26T11:58:39;5.80;99.90
16384;DHT22;8301;51.440;6.610;2024-02-26T12:01:35;5.90;99.90
16384;DHT22;8301;51.440;6.610;2024-02-26T12:03:34;5.90;99.90
16384;DHT22;8301;51.440;6.610;2024-02-26T12:06:02;5.90;99.90
16384;DHT22;8301;51.440;6.610;2024-02-26T12:08:30;6.00;99.90
16384;DHT22;8301;51.440;6.610;2024-02-26T12:11:00;6.10;99.90
16384;DHT22;8301;51.440;6.610;2024-02-26T12:13:29;6.10;99.90
16384;DHT22;8301;51.440;6.610;2024-02-26T12:15:57;6.20;99.90
16384;DHT22;8301;51.440;6.610;2024-02-26T12:18:24;6.20;99.90
16384;DHT22;8301;51.440;6.610;2024-02-26T12:21:00;6.10;99.90
16384;DHT22;8301;51.440;6.610;2024-02-26T12:23:19;6.20;99.90
16384;DHT22;8301;51.440;6.610;2024-02-26T12:25:46;6.20;99.90
16384;DHT22;8301;51.440;6.610;2024-02-26T12:28:14;6.20;99.90
16384;DHT22;8301;51.440;6.610;2024-02-26T12:30:41;6.20;99.90
16384;DHT22;8301;51.440;6.610;2024-02-26T12:33:07;6.20;99.90
16384;DHT22;8301;51.440;6.610;2024-02-26T12:35:35;6.20;99.90
16384;DHT22;8301;51.440;6.610;2024-02-26T12:38:01;6.20;99.90
16384;DHT22;8301;51.440;6.610;2024-02-26T12:40:29;6.10;99.90
16384;DHT22;8301;51.440;6.610;2024-02-26T12:42:57;6.20;1.00
16384;DHT22;8301;51.440;6.610;2024-02-26T12:45:24;6.20;1.00
16384;DHT22;8301;51.440;6.610;2024-02-26T12:47:52;6.20;99.90
16384;DHT22;8301;51.440;6.610;2024-02-26T12:50:19;6.20;1.00
16384;DHT22;8301;51.440;6.610;2024-02-26T12:52:46;6.20;99.90
16384;DHT22;8301;51.440;6.610;2024-02-26T12:55:14;6.20;10.90
16384;DHT22;8301;51.440;6.610;2024-02-26T12:57:41;6.20;1.00
16384;DHT22;8301;51.440;6.610;2024-02-26T13:00:10;6.20;1.00
16384;DHT22;8301;51.440;6.610;2024-02-26T13:02:37;6.20;99.90
16384;DHT22;8301;51.440;6.610;2024-02-26T13:05:05;6.20;99.90
16384;DHT22;8301;51.440;6.610;2024-02-26T13:07:32;6.20;1.00
16384;DHT22;8301;51.440;6.610;2024-02-26T13:09:59;6.20;99.90
16384;DHT22;8301;51.440;6.610;2024-02-26T13:12:26;6.20;99.90
16384;DHT22;8301;51.440;6.610;2024-02-26T13:15:02;6.20;99.90
16384;DHT22;8301;51.440;6.610;2024-02-26T13:17:33;6.20;1.00
16384;DHT22;8301;51.440;6.610;2024-02-26T13:20:00;6.30;1.00
16384;DHT22;8301;51.440;6.610;2024-02-26T13:22:27;6.30;1.00
16384;DHT22;8301;51.440;6.610;2024-02-26T13:24:56;6.30;99.90
16384;DHT22;8301;51.440;6.610;2024-02-26T13:27:24;6.30;1.00
16384;DHT22;8301;51.440;6.610;2024-02-26T13:30:12;6.40;1.00
16384;DHT22;8301;51.440;6.610;2024-02-26T13:32:20;6.40;1.00
16384;DHT22;8301;51.440;6.610;2024-02-26T13:34:47;6.40;1.00
16384;DHT22;8301;51.440;6.610;2024-02-26T13:37:14;6.40;26.10
16384;DHT22;8301;51.440;6.610;2024-02-26T13:39:41;6.40;1.00
16384;DHT22;8301;51.440;6.610;2024-02-26T13:42:08;6.40;1.00
16384;DHT22;8301;51.440;6.610;2024-02-26T13:44:37;6.50;99.90
16384;DHT22;8301;51.440;6.610;2024-02-26T13:47:05;6.50;99.90
16384;DHT22;8301;51.440;6.610;2024-02-26T13:49:32;6.50;1.00
16384;DHT22;8301;51.440;6.610;2024-02-26T13:51:58;6.60;1.00
16384;DHT22;8301;51.440;6.610;2024-02-26T13:54:25;6.60;1.00
16384;DHT22;8301;51.440;6.610;2024-02-26T13:56:52;6.50;99.90
16384;DHT22;8301;51.440;6.610;2024-02-26T13:59:19;6.50;99.90
16384;DHT22;8301;51.440;6.610;2024-02-26T14:01:46;6.50;1.00
16384;DHT22;8301;51.440;6.610;2024-02-26T14:04:12;6.50;99.90
16384;DHT22;8301;51.440;6.610;2024-02-26T14:06:39;6.60;1.00
16384;DHT22;8301;51.440;6.610;2024-02-26T14:09:06;6.60;99.90
16384;DHT22;8301;51.440;6.610;2024-02-26T14:11:33;6.60;1.00
16384;DHT22;8301;51.440;6.610;2024-02-26T14:14:00;6.50;1.00
16384;DHT22;8301;51.440;6.610;2024-02-26T14:16:27;6.60;1.00
16384;DHT22;8301;51.440;6.610;2024-02-26T14:18:54;6.50;99.90
16384;DHT22;8301;51.440;6.610;2024-02-26T14:21:20;6.60;1.00
16384;DHT22;8301;51.440;6.610;2024-02-26T14:23:47;6.50;99.90
16384;DHT22;8301;51.440;6.610;2024-02-26T14:26:14;6.60;1.00
16384;DHT22;8301;51.440;6.610;2024-02-26T14:28:41;6.50;1.00
16384;DHT22;8301;51.440;6.610;2024-02-26T14:31:08;6.50;1.00
16384;DHT22;8301;51.440;6.610;2024-02-26T14:33:39;6.50;1.00
16384;DHT22;8301;51.440;6.610;2024-02-26T14:36:06;6.50;1.00
16384;DHT22;8301;51.440;6.610;2024-02-26T14:38:33;6.50;1.00
16384;DHT22;8301;51.440;6.610;2024-02-26T14:41:00;6.50;1.00
16384;DHT22;8301;51.440;6.610;2024-02-26T14:43:28;6.50;9.10
16384;DHT22;8301;51.440;6.610;2024-02-26T14:45:55;6.50;99.90
16384;DHT22;8301;51.440;6.610;2024-02-26T14:48:22;6.50;99.90
16384;DHT22;8301;51.440;6.610;2024-02-26T14:50:49;6.40;1.00
16384;DHT22;8301;51.440;6.610;2024-02-26T14:53:17;6.40;1.00
16384;DHT22;8301;51.440;6.610;2024-02-26T14:55:43;6.40;1.00
16384;DHT22;8301;51.440;6.610;2024-02-26T14:58:10;6.40;1.00
16384;DHT22;8301;51.440;6.610;2024-02-26T15:00:43;6.40;1.00
16384;DHT22;8301;51.440;6.610;2024-02-26T15:03:10;6.40;1.00
16384;DHT22;8301;51.440;6.610;2024-02-26T15:05:37;6.40;1.00
16384;DHT22;8301;51.440;6.610;2024-02-26T15:08:04;6.40;1.00
16384;DHT22;8301;51.440;6.610;2024-02-26T15:10:32;6.30;1.80
16384;DHT22;8301;51.440;6.610;2024-02-26T15:12:59;6.30;62.80
16384;DHT22;8301;51.440;6.610;2024-02-26T15:15:26;6.30;99.90
16384;DHT22;8301;51.440;6.610;2024-02-26T15:17:53;6.30;1.00
16384;DHT22;8301;51.440;6.610;2024-02-26T15:20:20;6.30;99.90
16384;DHT22;8301;51.440;6.610;2024-02-26T15:22:48;6.30;1.00
16384;DHT22;8301;51.440;6.610;2024-02-26T15:25:15;6.20;1.00
16384;DHT22;8301;51.440;6.610;2024-02-26T15:27:42;6.20;1.00
16384;DHT22;8301;51.440;6.610;2024-02-26T15:30:09;6.20;1.00
16384;DHT22;8301;51.440;6.610;2024-02-26T15:32:36;6.20;99.90
16384;DHT22;8301;51.440;6.610;2024-02-26T15:35:03;6.20;1.00
16384;DHT22;8301;51.440;6.610;2024-02-26T15:37:30;6.20;99.90
16384;DHT22;8301;51.440;6.610;2024-02-26T15:39:56;6.20;1.00
16384;DHT22;8301;51.440;6.610;2024-02-26T15:42:23;6.20;99.90
16384;DHT22;8301;51.440;6.610;2024-02-26T15:44:51;6.20;99.90
16384;DHT22;8301;51.440;6.610;2024-02-26T15:47:17;6.20;1.00
16384;DHT22;8301;51.440;6.610;2024-02-26T15:49:44;6.20;1.00
16384;DHT22;8301;51.440;6.610;2024-02-26T15:52:11;6.20;1.00
16384;DHT22;8301;51.440;6.610;2024-02-26T15:54:38;6.10;99.90
16384;DHT22;8301;51.440;6.610;2024-02-26T15:57:06;6.10;1.00
16384;DHT22;8301;51.440;6.610;2024-02-26T15:59:35;6.10;1.00
16384;DHT22;8301;51.440;6.610;2024-02-26T16:02:02;6.10;99.90
16384;DHT22;8301;51.440;6.610;2024-02-26T16:04:29;6.10;99.90
16384;DHT22;8301;51.440;6.610;2024-02-26T16:06:57;6.10;1.00
16384;DHT22;8301;51.440;6.610;2024-02-26T16:09:24;6.10;1.00
16384;DHT22;8301;51.440;6.610;2024-02-26T16:11:52;6.10;1.00